createdAt,value
2023-03-05T00:00:14.533Z,16.92
2023-03-05T00:00:46.882Z,19.63
2023-03-05T00:01:22.921Z,18.75
2023-03-05T00:01:55.316Z,16.95
2023-03-05T00:02:27.692Z,17.40
2023-03-05T00:02:59.969Z,17.60
2023-03-05T00:03:32.411Z,17.85
2023-03-05T00:04:05.909Z,17.15
2023-03-05T00:04:38.238Z,18.50
2023-03-05T00:05:10.881Z,17.30
2023-03-05T00:05:43.566Z,18.70
2023-03-05T00:06:17.612Z,19.98
2023-03-05T00:06:49.912Z,19.58
2023-03-05T00:07:22.193Z,20.40
2023-03-05T00:07:54.538Z,18.95
2023-03-05T00:08:27.561Z,18.05
2023-03-05T00:09:00.322Z,19.02
2023-03-05T00:09:34.320Z,21.23
2023-03-05T00:10:08.233Z,17.00
2023-03-05T00:10:40.830Z,19.63
2023-03-05T00:11:13.373Z,16.95
2023-03-05T00:11:45.706Z,18.77
2023-03-05T00:12:18.282Z,19.15
2023-03-05T00:12:50.666Z,18.38
2023-03-05T00:13:22.959Z,15.48
2023-03-05T00:13:55.911Z,16.85
2023-03-05T00:14:28.185Z,16.15
2023-03-05T00:15:00.498Z,15.02
2023-03-05T00:15:33.164Z,18.80
2023-03-05T00:16:10.184Z,18.00
2023-03-05T00:16:42.715Z,18.85
2023-03-05T00:17:14.988Z,15.32
2023-03-05T00:17:47.429Z,15.18
2023-03-05T00:18:20.534Z,15.77
2023-03-05T00:18:53.746Z,16.15
2023-03-05T00:19:26.427Z,17.10
2023-03-05T00:20:01.311Z,18.00
2023-03-05T00:20:35.311Z,19.33
2023-03-05T00:21:22.553Z,17.97
2023-03-05T00:21:54.859Z,15.02
2023-03-05T00:22:27.562Z,14.73
2023-03-05T00:23:00.142Z,16.92
2023-03-05T00:23:32.485Z,15.48
2023-03-05T00:24:06.654Z,17.30
2023-03-05T00:24:38.949Z,16.25
2023-03-05T00:25:11.291Z,16.00
2023-03-05T00:25:43.833Z,15.75
2023-03-05T00:26:16.662Z,16.95
2023-03-05T00:26:49.982Z,16.47
2023-03-05T00:27:22.359Z,16.75
2023-03-05T00:27:54.707Z,17.20
2023-03-05T00:28:26.996Z,16.40
2023-03-05T00:28:59.402Z,17.17
2023-03-05T00:29:31.870Z,14.55
2023-03-05T00:30:04.409Z,18.65
2023-03-05T00:30:36.807Z,16.75
2023-03-05T00:31:09.544Z,21.42
2023-03-05T00:31:41.883Z,17.88
2023-03-05T00:32:14.476Z,15.67
2023-03-05T00:32:46.972Z,18.00
2023-03-05T00:33:19.517Z,17.25
2023-03-05T00:33:52.763Z,19.08
2023-03-05T00:34:26.073Z,17.77
2023-03-05T00:34:58.459Z,17.00
2023-03-05T00:35:30.781Z,17.95
2023-03-05T00:36:05.749Z,16.83
2023-03-05T00:36:41.662Z,16.05
2023-03-05T00:37:14.015Z,19.85
2023-03-05T00:37:46.436Z,18.17
2023-03-05T00:38:18.728Z,19.50
2023-03-05T00:38:51.474Z,15.05
2023-03-05T00:39:23.952Z,17.52
2023-03-05T00:39:56.306Z,17.33
2023-03-05T00:40:28.594Z,17.48
2023-03-05T00:41:00.889Z,17.73
2023-03-05T00:41:33.344Z,17.70
2023-03-05T00:42:05.803Z,15.48
2023-03-05T00:42:38.943Z,17.17
2023-03-05T00:43:11.422Z,18.70
2023-03-05T00:43:43.866Z,19.23
2023-03-05T00:44:16.785Z,15.65
2023-03-05T00:44:49.294Z,18.73
2023-03-05T00:45:21.570Z,16.23
2023-03-05T00:45:54.073Z,18.67
2023-03-05T00:46:27.773Z,16.48
2023-03-05T00:47:00.425Z,19.50
2023-03-05T00:47:32.936Z,16.58
2023-03-05T00:48:05.631Z,17.88
2023-03-05T00:48:37.952Z,16.77
2023-03-05T00:49:10.282Z,16.77
2023-03-05T00:49:42.764Z,15.80
2023-03-05T00:50:15.521Z,17.65
2023-03-05T00:50:47.994Z,17.10
2023-03-05T00:51:21.172Z,17.90
2023-03-05T00:51:53.743Z,16.42
2023-03-05T00:52:26.093Z,15.73
2023-03-05T00:52:58.570Z,15.50
2023-03-05T00:53:31.241Z,17.02
2023-03-05T00:54:04.677Z,16.00
2023-03-05T00:54:37.339Z,18.30
2023-03-05T00:55:09.876Z,16.88
2023-03-05T00:55:42.185Z,16.85
2023-03-05T00:56:14.576Z,18.27
2023-03-05T00:56:47.647Z,16.25
2023-03-05T00:57:19.918Z,17.80
2023-03-05T00:57:52.213Z,16.70
2023-03-05T00:58:24.588Z,18.33
2023-03-05T00:58:57.085Z,18.45
2023-03-05T00:59:29.696Z,20.23
2023-03-05T01:00:01.973Z,18.60
2023-03-05T01:00:34.891Z,16.73
2023-03-05T01:01:07.667Z,17.85
2023-03-05T01:01:40.381Z,17.83
2023-03-05T01:02:12.763Z,17.27
2023-03-05T01:02:45.034Z,17.50
2023-03-05T01:03:20.395Z,17.63
2023-03-05T01:03:56.563Z,16.90
2023-03-05T01:04:29.440Z,18.23
2023-03-05T01:05:01.918Z,18.87
2023-03-05T01:05:34.504Z,15.85
2023-03-05T01:06:08.043Z,15.85
2023-03-05T01:06:44.990Z,17.73
2023-03-05T01:07:19.370Z,19.83
2023-03-05T01:07:54.876Z,18.70
2023-03-05T01:08:27.544Z,17.80
2023-03-05T01:08:59.808Z,17.70
2023-03-05T01:09:32.099Z,18.48
2023-03-05T01:10:05.038Z,17.65
2023-03-05T01:10:37.411Z,17.00
2023-03-05T01:11:10.680Z,19.27
2023-03-05T01:11:42.964Z,15.65
2023-03-05T01:12:15.416Z,18.95
2023-03-05T01:12:47.818Z,16.85
2023-03-05T01:13:20.090Z,17.80
2023-03-05T01:13:52.372Z,18.83
2023-03-05T01:14:24.694Z,19.65
2023-03-05T01:14:57.066Z,17.02
2023-03-05T01:15:29.459Z,17.00
2023-03-05T01:16:01.923Z,16.83
2023-03-05T01:16:34.700Z,18.27
2023-03-05T01:17:07.986Z,16.67
2023-03-05T01:17:40.259Z,18.13
2023-03-05T01:18:12.741Z,18.48
2023-03-05T01:18:45.269Z,17.70
2023-03-05T01:19:18.773Z,16.83
2023-03-05T01:19:51.066Z,17.38
2023-03-05T01:20:23.648Z,16.38
2023-03-05T01:20:56.071Z,19.10
2023-03-05T01:21:28.511Z,18.93
2023-03-05T01:22:00.801Z,18.42
2023-03-05T01:22:33.301Z,17.08
2023-03-05T01:23:05.603Z,15.13
2023-03-05T01:23:38.010Z,19.00
2023-03-05T01:24:10.469Z,18.10
2023-03-05T01:24:42.753Z,17.70
2023-03-05T01:25:15.940Z,18.27
2023-03-05T01:25:55.612Z,17.50
2023-03-05T01:26:28.463Z,16.08
2023-03-05T01:27:00.863Z,17.30
2023-03-05T01:27:33.763Z,16.20
2023-03-05T01:28:06.057Z,17.50
2023-03-05T01:28:38.715Z,18.13
2023-03-05T01:29:11.209Z,17.80
2023-03-05T01:29:43.561Z,16.77
2023-03-05T01:30:16.026Z,18.08
2023-03-05T01:30:48.349Z,16.40
2023-03-05T01:31:20.957Z,18.25
2023-03-05T01:31:53.290Z,17.65
2023-03-05T01:32:25.664Z,18.90
2023-03-05T01:32:58.137Z,19.30
2023-03-05T01:33:30.822Z,20.60
2023-03-05T01:34:03.123Z,19.35
2023-03-05T01:34:36.830Z,17.77
2023-03-05T01:35:10.781Z,18.85
2023-03-05T01:35:43.494Z,19.05
2023-03-05T01:36:17.115Z,17.92
2023-03-05T01:36:52.465Z,17.85
2023-03-05T01:37:24.775Z,16.55
2023-03-05T01:37:57.062Z,18.00
2023-03-05T01:38:29.396Z,16.35
2023-03-05T01:39:02.827Z,16.00
2023-03-05T01:39:36.656Z,16.65
2023-03-05T01:40:10.185Z,17.20
2023-03-05T01:40:43.082Z,18.38
2023-03-05T01:41:16.537Z,18.08
2023-03-05T01:41:48.965Z,15.85
2023-03-05T01:42:21.389Z,17.75
2023-03-05T01:43:12.067Z,16.88
2023-03-05T01:43:45.101Z,15.37
2023-03-05T01:44:25.341Z,17.23
2023-03-05T01:45:00.900Z,19.00
2023-03-05T01:45:33.427Z,18.70
2023-03-05T01:46:38.288Z,16.15
2023-03-05T01:47:10.737Z,19.38
2023-03-05T01:47:43.346Z,17.55
2023-03-05T01:48:15.613Z,19.27
2023-03-05T01:48:50.025Z,16.52
2023-03-05T01:49:32.950Z,17.02
2023-03-05T01:50:07.526Z,16.40
2023-03-05T01:50:40.574Z,17.80
2023-03-05T01:51:13.145Z,17.27
2023-03-05T01:51:51.709Z,19.27
2023-03-05T01:52:25.122Z,19.45
2023-03-05T01:53:06.310Z,17.85
2023-03-05T01:53:38.655Z,16.60
2023-03-05T01:54:12.049Z,17.60
2023-03-05T01:54:46.559Z,17.05
2023-03-05T01:55:21.236Z,17.70
2023-03-05T01:55:55.924Z,15.93
2023-03-05T01:56:29.584Z,18.85
2023-03-05T01:57:04.898Z,37.15
2023-03-05T01:57:46.952Z,36.03
2023-03-05T01:58:19.389Z,33.30
2023-03-05T01:58:52.267Z,36.20
2023-03-05T01:59:25.763Z,39.13
2023-03-05T02:00:11.701Z,37.03
2023-03-05T02:00:48.569Z,42.30
2023-03-05T02:01:21.799Z,35.03
2023-03-05T02:01:55.885Z,25.77
2023-03-05T02:02:28.486Z,33.75
2023-03-05T02:03:03.888Z,31.20
2023-03-05T02:03:36.932Z,26.60
2023-03-05T02:04:11.279Z,31.92
2023-03-05T02:04:46.649Z,28.38
2023-03-05T02:05:38.643Z,30.90
2023-03-05T02:06:11.553Z,29.08
2023-03-05T02:06:44.628Z,26.33
2023-03-05T02:07:18.060Z,27.98
2023-03-05T02:07:50.804Z,23.53
2023-03-05T02:08:23.664Z,23.58
2023-03-05T02:08:56.834Z,25.33
2023-03-05T02:09:29.725Z,29.33
2023-03-05T02:10:02.031Z,25.80
2023-03-05T02:10:36.496Z,23.45
2023-03-05T02:11:08.949Z,25.25
2023-03-05T02:11:41.721Z,21.92
2023-03-05T02:12:14.942Z,23.85
2023-03-05T02:12:49.445Z,21.80
2023-03-05T02:13:23.806Z,21.37
2023-03-05T02:13:56.572Z,22.73
2023-03-05T02:14:29.078Z,19.45
2023-03-05T02:15:01.394Z,19.52
2023-03-05T02:15:34.234Z,21.02
2023-03-05T02:16:06.985Z,19.23
2023-03-05T02:16:39.615Z,20.00
2023-03-05T02:17:12.617Z,20.88
2023-03-05T02:17:45.404Z,22.23
2023-03-05T02:18:18.795Z,19.85
2023-03-05T02:18:51.229Z,20.60
2023-03-05T02:19:23.511Z,21.63
2023-03-05T02:20:02.464Z,19.48
2023-03-05T02:20:50.278Z,21.15
2023-03-05T02:21:35.766Z,22.60
2023-03-05T02:22:14.364Z,19.88
2023-03-05T02:22:46.836Z,19.35
2023-03-05T02:23:19.842Z,18.33
2023-03-05T02:23:52.228Z,19.83
2023-03-05T02:24:37.259Z,18.98
2023-03-05T02:25:20.328Z,17.70
2023-03-05T02:25:53.364Z,18.40
2023-03-05T02:26:25.708Z,19.98
2023-03-05T02:26:58.128Z,19.42
2023-03-05T02:27:35.278Z,20.92
2023-03-05T02:28:19.973Z,19.55
2023-03-05T02:28:58.180Z,20.10
2023-03-05T02:29:31.913Z,19.08
2023-03-05T02:30:04.330Z,18.02
2023-03-05T02:30:37.583Z,19.52
2023-03-05T02:31:13.213Z,19.00
2023-03-05T02:31:45.631Z,21.73
2023-03-05T02:32:18.128Z,17.33
2023-03-05T02:32:51.477Z,20.70
2023-03-05T02:33:25.290Z,19.55
2023-03-05T02:33:58.176Z,18.83
2023-03-05T02:34:31.357Z,19.17
2023-03-05T02:35:04.284Z,18.45
2023-03-05T02:35:37.103Z,21.60
2023-03-05T02:36:09.565Z,18.92
2023-03-05T02:36:41.973Z,17.90
2023-03-05T02:37:14.764Z,16.27
2023-03-05T02:37:47.145Z,20.42
2023-03-05T02:38:20.296Z,18.23
2023-03-05T02:38:53.776Z,17.95
2023-03-05T02:39:26.392Z,19.63
2023-03-05T02:39:58.887Z,19.55
2023-03-05T02:40:31.641Z,17.45
2023-03-05T02:41:04.141Z,19.65
2023-03-05T02:41:36.438Z,21.30
2023-03-05T02:42:09.649Z,20.23
2023-03-05T02:42:43.059Z,19.77
2023-03-05T02:43:17.270Z,19.63
2023-03-05T02:43:49.720Z,16.90
2023-03-05T02:44:22.045Z,17.98
2023-03-05T02:44:54.620Z,19.48
2023-03-05T02:45:27.033Z,21.58
2023-03-05T02:45:59.424Z,17.45
2023-03-05T02:46:31.832Z,20.05
2023-03-05T02:47:04.218Z,19.40
2023-03-05T02:47:38.419Z,17.23
2023-03-05T02:48:12.134Z,18.77
2023-03-05T02:48:45.159Z,18.05
2023-03-05T02:49:19.139Z,17.98
2023-03-05T02:49:51.531Z,16.48
2023-03-05T02:50:24.189Z,20.23
2023-03-05T02:50:56.748Z,21.45
2023-03-05T02:51:29.056Z,17.73
2023-03-05T02:52:01.953Z,20.65
2023-03-05T02:52:34.328Z,19.15
2023-03-05T02:53:06.948Z,16.97
2023-03-05T02:53:39.299Z,14.43
2023-03-05T02:54:11.643Z,16.50
2023-03-05T02:54:43.853Z,16.30
2023-03-05T02:55:16.282Z,19.73
2023-03-05T02:55:50.267Z,17.25
2023-03-05T02:56:22.531Z,21.10
2023-03-05T02:56:54.843Z,24.92
2023-03-05T02:57:28.241Z,25.25
2023-03-05T02:58:01.022Z,23.95
2023-03-05T02:58:33.470Z,18.87
2023-03-05T02:59:06.261Z,18.55
2023-03-05T02:59:38.569Z,17.95
2023-03-05T03:00:11.295Z,19.02
2023-03-05T03:00:43.916Z,17.90
2023-03-05T03:01:16.368Z,17.42
2023-03-05T03:01:48.747Z,19.73
2023-03-05T03:02:21.616Z,18.52
2023-03-05T03:02:54.336Z,22.38
2023-03-05T03:03:26.887Z,22.15
2023-03-05T03:03:59.482Z,16.90
2023-03-05T03:04:31.761Z,16.98
2023-03-05T03:05:04.234Z,16.45
2023-03-05T03:05:36.929Z,15.95
2023-03-05T03:06:09.258Z,19.02
2023-03-05T03:06:41.646Z,18.45
2023-03-05T03:07:14.545Z,16.77
2023-03-05T03:07:46.847Z,17.33
2023-03-05T03:08:19.148Z,19.23
2023-03-05T03:08:51.454Z,19.98
2023-03-05T03:09:23.754Z,17.73
2023-03-05T03:09:56.073Z,19.50
2023-03-05T03:10:28.336Z,14.68
2023-03-05T03:11:07.296Z,15.43
2023-03-05T03:11:39.839Z,14.13
2023-03-05T03:12:12.631Z,16.02
2023-03-05T03:12:45.486Z,15.68
2023-03-05T03:13:17.915Z,14.40
2023-03-05T03:13:50.199Z,14.00
2023-03-05T03:14:22.478Z,13.98
2023-03-05T03:14:54.879Z,16.47
2023-03-05T03:15:27.213Z,15.15
2023-03-05T03:16:07.071Z,14.55
2023-03-05T03:16:39.450Z,13.63
2023-03-05T03:17:13.336Z,14.07
2023-03-05T03:17:45.954Z,14.45
2023-03-05T03:18:18.319Z,14.02
2023-03-05T03:18:50.661Z,14.80
2023-03-05T03:19:22.954Z,14.55
2023-03-05T03:19:55.249Z,15.30
2023-03-05T03:20:27.615Z,14.27
2023-03-05T03:20:59.928Z,14.20
2023-03-05T03:21:32.537Z,15.95
2023-03-05T03:22:05.181Z,14.57
2023-03-05T03:22:37.464Z,15.45
2023-03-05T03:23:09.785Z,14.50
2023-03-05T03:23:42.066Z,14.80
2023-03-05T03:24:14.323Z,13.10
2023-03-05T03:24:46.649Z,11.85
2023-03-05T03:25:20.556Z,12.02
2023-03-05T03:25:53.535Z,14.57
2023-03-05T03:26:25.843Z,14.05
2023-03-05T03:26:58.125Z,11.90
2023-03-05T03:27:30.435Z,14.32
2023-03-05T03:28:03.518Z,14.10
2023-03-05T03:28:35.821Z,15.07
2023-03-05T03:29:08.121Z,14.88
2023-03-05T03:29:40.423Z,13.50
2023-03-05T03:30:13.601Z,13.38
2023-03-05T03:30:45.944Z,12.88
2023-03-05T03:31:18.756Z,11.33
2023-03-05T03:31:51.089Z,12.82
2023-03-05T03:32:23.466Z,13.07
2023-03-05T03:32:55.777Z,11.93
2023-03-05T03:33:28.119Z,11.63
2023-03-05T03:34:00.402Z,10.27
2023-03-05T03:34:32.668Z,11.23
2023-03-05T03:35:05.230Z,12.35
2023-03-05T03:35:37.879Z,11.13
2023-03-05T03:36:10.330Z,12.38
2023-03-05T03:36:46.846Z,12.53
2023-03-05T03:37:22.230Z,12.57
2023-03-05T03:37:54.551Z,13.43
2023-03-05T03:38:26.859Z,11.73
2023-03-05T03:38:59.186Z,13.82
2023-03-05T03:39:31.646Z,12.95
2023-03-05T03:40:05.931Z,10.13
2023-03-05T03:40:38.741Z,11.10
2023-03-05T03:41:11.019Z,11.25
2023-03-05T03:41:44.574Z,10.45
2023-03-05T03:42:18.113Z,10.17
2023-03-05T03:42:53.421Z,10.27
2023-03-05T03:43:25.842Z,12.13
2023-03-05T03:43:58.151Z,11.32
2023-03-05T03:44:30.447Z,12.50
2023-03-05T03:45:03.545Z,11.20
2023-03-05T03:45:35.902Z,12.20
2023-03-05T03:46:08.307Z,11.85
2023-03-05T03:46:41.144Z,10.40
2023-03-05T03:47:13.439Z,10.63
2023-03-05T03:47:45.726Z,11.03
2023-03-05T03:48:18.315Z,11.35
2023-03-05T03:48:51.734Z,11.45
2023-03-05T03:49:24.929Z,11.20
2023-03-05T03:49:59.044Z,11.77
2023-03-05T03:50:31.590Z,12.48
2023-03-05T03:51:04.611Z,12.38
2023-03-05T03:51:36.903Z,11.32
2023-03-05T03:52:09.261Z,11.90
2023-03-05T03:52:41.541Z,11.48
2023-03-05T03:53:14.535Z,11.77
2023-03-05T03:53:46.855Z,11.18
2023-03-05T03:54:19.470Z,10.40
2023-03-05T03:54:53.294Z,11.38
2023-03-05T03:55:25.614Z,10.85
2023-03-05T03:55:58.811Z,13.15
2023-03-05T03:56:31.139Z,11.60
2023-03-05T03:57:03.897Z,10.35
2023-03-05T03:57:36.639Z,9.25
2023-03-05T03:58:09.166Z,11.65
2023-03-05T03:58:41.476Z,11.20
2023-03-05T03:59:14.167Z,12.02
2023-03-05T03:59:46.539Z,13.43
2023-03-05T04:00:19.142Z,12.38
2023-03-05T04:00:51.433Z,12.10
2023-03-05T04:01:23.979Z,12.10
2023-03-05T04:01:56.287Z,13.90
2023-03-05T04:02:28.670Z,13.52
2023-03-05T04:03:00.972Z,11.27
2023-03-05T04:03:33.355Z,10.88
2023-03-05T04:04:06.118Z,11.90
2023-03-05T04:04:38.583Z,9.43
2023-03-05T04:05:11.274Z,10.63
2023-03-05T04:05:43.561Z,11.48
2023-03-05T04:06:15.922Z,11.48
2023-03-05T04:06:48.600Z,11.30
2023-03-05T04:07:20.977Z,11.23
2023-03-05T04:07:53.431Z,11.60
2023-03-05T04:08:25.718Z,10.68
2023-03-05T04:08:58.237Z,11.90
2023-03-05T04:09:30.561Z,11.80
2023-03-05T04:10:03.407Z,10.70
2023-03-05T04:10:35.761Z,11.43
2023-03-05T04:11:08.389Z,12.60
2023-03-05T04:11:40.665Z,11.63
2023-03-05T04:12:18.093Z,10.13
2023-03-05T04:12:50.475Z,13.20
2023-03-05T04:13:22.748Z,9.07
2023-03-05T04:13:55.028Z,12.18
2023-03-05T04:14:27.508Z,11.40
2023-03-05T04:14:59.798Z,11.43
2023-03-05T04:15:32.768Z,10.82
2023-03-05T04:16:05.311Z,10.75
2023-03-05T04:16:37.680Z,11.60
2023-03-05T04:17:10.292Z,11.70
2023-03-05T04:17:42.575Z,10.98
2023-03-05T04:18:14.933Z,12.85
2023-03-05T04:18:47.339Z,11.35
2023-03-05T04:19:20.045Z,11.45
2023-03-05T04:19:52.404Z,11.55
2023-03-05T04:20:24.785Z,11.00
2023-03-05T04:20:57.117Z,10.40
2023-03-05T04:21:29.804Z,9.90
2023-03-05T04:22:02.148Z,10.05
2023-03-05T04:22:34.462Z,11.77
2023-03-05T04:23:06.728Z,10.13
2023-03-05T04:23:39.189Z,11.68
2023-03-05T04:24:11.592Z,10.43
2023-03-05T04:24:44.228Z,11.32
2023-03-05T04:25:16.950Z,11.40
2023-03-05T04:25:49.256Z,12.83
2023-03-05T04:26:21.604Z,11.82
2023-03-05T04:26:53.868Z,14.27
2023-03-05T04:27:26.162Z,13.52
2023-03-05T04:27:58.432Z,13.15
2023-03-05T04:28:30.869Z,14.50
2023-03-05T04:29:03.320Z,14.70
2023-03-05T04:29:35.843Z,15.57
2023-03-05T04:30:09.071Z,16.25
2023-03-05T04:30:41.788Z,15.52
2023-03-05T04:31:14.294Z,14.90
2023-03-05T04:31:46.834Z,16.50
2023-03-05T04:32:23.340Z,13.80
2023-03-05T04:32:55.728Z,14.60
2023-03-05T04:33:28.105Z,14.70
2023-03-05T04:34:01.672Z,16.58
2023-03-05T04:34:34.172Z,16.02
2023-03-05T04:35:06.952Z,17.52
2023-03-05T04:35:39.321Z,15.70
2023-03-05T04:36:11.646Z,15.05
2023-03-05T04:36:44.134Z,14.73
2023-03-05T04:37:16.563Z,14.05
2023-03-05T04:37:48.921Z,16.58
2023-03-05T04:38:21.272Z,16.83
2023-03-05T04:38:53.554Z,17.95
2023-03-05T04:39:25.848Z,17.10
2023-03-05T04:39:58.193Z,19.67
2023-03-05T04:40:30.532Z,19.98
2023-03-05T04:41:02.842Z,17.20
2023-03-05T04:41:35.555Z,16.58
2023-03-05T04:42:07.888Z,19.20
2023-03-05T04:42:40.243Z,17.52
2023-03-05T04:43:12.609Z,16.70
2023-03-05T04:43:44.935Z,15.93
2023-03-05T04:44:18.120Z,18.08
2023-03-05T04:44:50.745Z,17.55
2023-03-05T04:45:23.126Z,16.52
2023-03-05T04:45:55.978Z,17.55
2023-03-05T04:46:28.325Z,18.35
2023-03-05T04:47:00.678Z,17.95
2023-03-05T04:47:32.997Z,22.47
2023-03-05T04:48:05.488Z,17.13
2023-03-05T04:48:37.806Z,15.70
2023-03-05T04:49:10.143Z,14.70
2023-03-05T04:49:42.479Z,16.95
2023-03-05T04:50:14.795Z,19.85
2023-03-05T04:50:47.244Z,19.50
2023-03-05T04:51:19.625Z,20.83
2023-03-05T04:51:52.044Z,18.65
2023-03-05T04:52:24.502Z,17.00
2023-03-05T04:52:56.889Z,17.20
2023-03-05T04:53:29.215Z,16.52
2023-03-05T04:54:01.551Z,16.67
2023-03-05T04:54:33.857Z,17.63
2023-03-05T04:55:06.355Z,14.95
2023-03-05T04:55:38.696Z,17.48
2023-03-05T04:56:11.012Z,16.15
2023-03-05T04:56:43.780Z,31.88
2023-03-05T04:57:16.482Z,32.30
2023-03-05T04:57:48.844Z,22.48
2023-03-05T04:58:21.157Z,25.97
2023-03-05T04:58:53.622Z,25.33
2023-03-05T04:59:25.908Z,22.70
2023-03-05T04:59:58.273Z,20.40
2023-03-05T05:00:30.545Z,18.40
2023-03-05T05:01:04.680Z,17.77
2023-03-05T05:01:37.777Z,17.35
2023-03-05T05:02:10.078Z,20.10
2023-03-05T05:02:43.555Z,17.23
2023-03-05T05:03:15.937Z,16.20
2023-03-05T05:03:48.349Z,16.30
2023-03-05T05:04:20.690Z,18.98
2023-03-05T05:04:53.832Z,15.32
2023-03-05T05:05:28.618Z,17.52
2023-03-05T05:06:01.370Z,17.48
2023-03-05T05:06:33.858Z,17.30
2023-03-05T05:07:07.816Z,15.68
2023-03-05T05:07:40.106Z,18.48
2023-03-05T05:08:12.404Z,18.48
2023-03-05T05:08:44.717Z,19.05
2023-03-05T05:09:17.071Z,17.50
2023-03-05T05:09:49.423Z,18.60
2023-03-05T05:10:21.986Z,24.77
2023-03-05T05:11:01.497Z,20.60
2023-03-05T05:11:33.811Z,18.42
2023-03-05T05:12:06.237Z,17.85
2023-03-05T05:12:38.632Z,15.32
2023-03-05T05:13:10.956Z,19.08
2023-03-05T05:13:43.253Z,17.88
2023-03-05T05:14:15.597Z,16.55
2023-03-05T05:14:47.861Z,15.00
2023-03-05T05:15:20.603Z,16.27
2023-03-05T05:15:53.206Z,16.92
2023-03-05T05:16:25.546Z,14.23
2023-03-05T05:16:57.858Z,18.65
2023-03-05T05:17:33.080Z,14.30
2023-03-05T05:18:05.562Z,17.15
2023-03-05T05:18:38.075Z,16.85
2023-03-05T05:19:10.650Z,14.77
2023-03-05T05:19:43.088Z,15.38
2023-03-05T05:20:16.522Z,17.67
2023-03-05T05:20:49.290Z,18.23
2023-03-05T05:21:21.669Z,19.25
2023-03-05T05:21:53.952Z,15.50
2023-03-05T05:22:28.002Z,17.45
2023-03-05T05:23:00.345Z,17.83
2023-03-05T05:23:32.671Z,19.80
2023-03-05T05:24:05.240Z,19.38
2023-03-05T05:24:37.813Z,20.77
2023-03-05T05:25:10.720Z,16.38
2023-03-05T05:25:43.458Z,15.13
2023-03-05T05:26:15.837Z,19.70
2023-03-05T05:26:48.123Z,26.30
2023-03-05T05:27:20.688Z,27.48
2023-03-05T05:27:52.972Z,21.67
2023-03-05T05:28:25.255Z,18.83
2023-03-05T05:28:57.575Z,18.55
2023-03-05T05:29:30.069Z,17.77
2023-03-05T05:30:02.672Z,20.77
2023-03-05T05:30:34.982Z,15.88
2023-03-05T05:31:08.075Z,16.20
2023-03-05T05:31:40.498Z,13.80
2023-03-05T05:32:12.844Z,16.88
2023-03-05T05:32:45.182Z,15.35
2023-03-05T05:33:17.685Z,17.63
2023-03-05T05:33:50.116Z,18.10
2023-03-05T05:34:22.398Z,18.50
2023-03-05T05:34:55.603Z,19.38
2023-03-05T05:35:28.177Z,22.27
2023-03-05T05:36:02.348Z,18.85
2023-03-05T05:36:34.667Z,16.70
2023-03-05T05:37:07.031Z,16.90
2023-03-05T05:37:39.341Z,17.48
2023-03-05T05:38:11.691Z,18.45
2023-03-05T05:38:43.976Z,16.52
2023-03-05T05:39:16.260Z,16.77
2023-03-05T05:39:50.482Z,16.30
2023-03-05T05:40:23.360Z,15.38
2023-03-05T05:40:55.626Z,15.38
2023-03-05T05:41:27.926Z,17.05
2023-03-05T05:42:00.197Z,15.40
2023-03-05T05:42:32.477Z,15.20
2023-03-05T05:43:05.181Z,16.63
2023-03-05T05:43:37.802Z,14.95
2023-03-05T05:44:10.081Z,13.10
2023-03-05T05:44:42.362Z,15.52
2023-03-05T05:45:14.765Z,13.95
2023-03-05T05:45:47.426Z,14.27
2023-03-05T05:46:20.661Z,15.95
2023-03-05T05:46:53.086Z,14.65
2023-03-05T05:47:25.379Z,14.83
2023-03-05T05:47:57.833Z,14.10
2023-03-05T05:48:30.880Z,13.55
2023-03-05T05:49:03.263Z,16.45
2023-03-05T05:49:35.588Z,13.70
2023-03-05T05:50:08.190Z,14.00
2023-03-05T05:50:41.377Z,16.40
2023-03-05T05:51:15.464Z,14.80
2023-03-05T05:51:47.769Z,16.30
2023-03-05T05:52:22.016Z,14.27
2023-03-05T05:52:54.303Z,13.07
2023-03-05T05:53:26.663Z,14.77
2023-03-05T05:53:58.998Z,14.43
2023-03-05T05:54:31.273Z,15.30
2023-03-05T05:55:03.801Z,13.95
2023-03-05T05:55:36.084Z,14.73
2023-03-05T05:56:09.863Z,15.27
2023-03-05T05:56:42.401Z,13.82
2023-03-05T05:57:15.062Z,14.60
2023-03-05T05:57:47.446Z,15.85
2023-03-05T05:58:19.826Z,13.90
2023-03-05T05:58:52.566Z,14.55
2023-03-05T05:59:25.028Z,14.65
2023-03-05T05:59:57.508Z,15.10
2023-03-05T06:00:29.940Z,16.40
2023-03-05T06:01:02.502Z,12.95
2023-03-05T06:01:35.323Z,14.02
2023-03-05T06:02:08.321Z,12.63
2023-03-05T06:02:41.640Z,13.13
2023-03-05T06:03:14.100Z,13.15
2023-03-05T06:03:46.790Z,12.90
2023-03-05T06:04:19.279Z,13.50
2023-03-05T06:04:51.621Z,12.18
2023-03-05T06:05:24.055Z,12.15
2023-03-05T06:05:56.534Z,12.85
2023-03-05T06:06:29.046Z,13.57
2023-03-05T06:07:01.425Z,10.88
2023-03-05T06:07:34.898Z,12.25
2023-03-05T06:08:07.555Z,14.85
2023-03-05T06:08:40.396Z,12.23
2023-03-05T06:09:12.702Z,13.00
2023-03-05T06:09:44.984Z,13.20
2023-03-05T06:10:17.426Z,12.52
2023-03-05T06:10:55.724Z,12.63
2023-03-05T06:11:28.138Z,17.27
2023-03-05T06:12:00.469Z,15.43
2023-03-05T06:12:32.758Z,14.40
2023-03-05T06:13:05.091Z,13.57
2023-03-05T06:13:37.504Z,12.65
2023-03-05T06:14:10.969Z,14.27
2023-03-05T06:14:43.477Z,12.87
2023-03-05T06:15:15.863Z,14.23
2023-03-05T06:15:55.841Z,15.60
2023-03-05T06:16:28.162Z,13.60
2023-03-05T06:17:00.674Z,13.23
2023-03-05T06:17:32.989Z,13.75
2023-03-05T06:18:05.481Z,14.98
2023-03-05T06:18:37.825Z,13.60
2023-03-05T06:19:13.654Z,14.60
2023-03-05T06:19:46.063Z,10.45
2023-03-05T06:20:19.129Z,11.97
2023-03-05T06:20:58.781Z,14.60
2023-03-05T06:21:31.096Z,12.63
2023-03-05T06:22:03.386Z,11.13
2023-03-05T06:22:38.977Z,10.15
2023-03-05T06:23:11.324Z,10.88
2023-03-05T06:23:44.167Z,11.85
2023-03-05T06:24:16.543Z,10.60
2023-03-05T06:24:49.039Z,10.60
2023-03-05T06:25:21.354Z,12.02
2023-03-05T06:25:53.909Z,10.90
2023-03-05T06:26:26.363Z,11.77
2023-03-05T06:26:58.634Z,13.70
2023-03-05T06:27:30.886Z,12.55
2023-03-05T06:28:03.106Z,13.00
2023-03-05T06:28:35.630Z,13.13
2023-03-05T06:29:07.886Z,11.45
2023-03-05T06:29:40.158Z,12.40
2023-03-05T06:30:13.001Z,12.10
2023-03-05T06:30:45.367Z,12.93
2023-03-05T06:31:19.108Z,12.40
2023-03-05T06:31:51.471Z,11.00
2023-03-05T06:32:24.053Z,11.50
2023-03-05T06:32:56.365Z,13.80
2023-03-05T06:33:28.937Z,13.45
2023-03-05T06:34:04.220Z,13.63
2023-03-05T06:34:36.553Z,12.75
2023-03-05T06:35:09.323Z,11.63
2023-03-05T06:35:41.662Z,13.07
2023-03-05T06:36:15.389Z,12.18
2023-03-05T06:36:47.778Z,11.93
2023-03-05T06:37:20.295Z,11.65
2023-03-05T06:37:52.637Z,11.00
2023-03-05T06:38:25.477Z,11.52
2023-03-05T06:38:58.359Z,12.77
2023-03-05T06:39:31.762Z,12.63
2023-03-05T06:40:04.960Z,12.57
2023-03-05T06:40:39.369Z,10.85
2023-03-05T06:41:13.260Z,12.13
2023-03-05T06:41:45.626Z,13.68
2023-03-05T06:42:19.896Z,11.33
2023-03-05T06:42:52.177Z,13.68
2023-03-05T06:43:24.498Z,11.05
2023-03-05T06:43:56.957Z,12.27
2023-03-05T06:44:29.416Z,12.10
2023-03-05T06:45:01.819Z,11.20
2023-03-05T06:45:34.283Z,11.32
2023-03-05T06:46:08.130Z,13.70
2023-03-05T06:46:40.510Z,11.13
2023-03-05T06:47:12.990Z,12.30
2023-03-05T06:47:45.423Z,11.67
2023-03-05T06:48:17.708Z,11.35
2023-03-05T06:48:50.988Z,11.73
2023-03-05T06:49:23.495Z,13.55
2023-03-05T06:49:55.849Z,11.73
2023-03-05T06:50:28.725Z,11.43
2023-03-05T06:51:01.099Z,11.27
2023-03-05T06:51:34.848Z,12.18
2023-03-05T06:52:07.751Z,12.68
2023-03-05T06:52:41.202Z,11.57
2023-03-05T06:53:13.586Z,10.63
2023-03-05T06:53:49.000Z,13.20
2023-03-05T06:54:21.678Z,15.02
2023-03-05T06:54:56.047Z,17.23
2023-03-05T06:55:28.340Z,20.65
2023-03-05T06:56:01.631Z,24.50
2023-03-05T06:56:35.706Z,31.13
2023-03-05T06:57:08.065Z,31.60
2023-03-05T06:57:40.394Z,50.55
2023-03-05T06:58:12.665Z,82.65
2023-03-05T06:58:46.222Z,81.67
2023-03-05T06:59:18.593Z,49.47
2023-03-05T06:59:50.892Z,20.10
2023-03-05T07:00:24.568Z,28.10
2023-03-05T07:00:56.899Z,28.90
2023-03-05T07:01:29.293Z,37.85
2023-03-05T07:02:01.646Z,37.45
2023-03-05T07:02:34.052Z,32.83
2023-03-05T07:03:06.370Z,31.70
2023-03-05T07:03:39.124Z,16.75
2023-03-05T07:04:12.320Z,15.87
2023-03-05T07:04:44.850Z,20.25
2023-03-05T07:05:17.275Z,14.20
2023-03-05T07:05:49.597Z,12.68
2023-03-05T07:06:22.613Z,14.40